sensor_id;sensor_type;location;lat;lon;timestamp;P1;durP1;ratioP1;P2;durP2;ratioP2
15553;SDS011;7878;44.632;10.942;2022-11-13T00:02:24;52.03;;;40.20;;
15553;SDS011;7878;44.632;10.942;2022-11-13T00:04:49;57.87;;;40.83;;
15553;SDS011;7878;44.632;10.942;2022-11-13T00:07:15;56.73;;;39.63;;
15553;SDS011;7878;44.632;10.942;2022-11-13T00:09:41;53.57;;;41.00;;
15553;SDS011;7878;44.632;10.942;2022-11-13T00:12:06;53.87;;;40.83;;
15553;SDS011;7878;44.632;10.942;2022-11-13T00:14:32;51.10;;;38.80;;
15553;SDS011;7878;44.632;10.942;2022-11-13T00:16:58;49.73;;;39.37;;
15553;SDS011;7878;44.632;10.942;2022-11-13T00:19:23;52.60;;;38.60;;
15553;SDS011;7878;44.632;10.942;2022-11-13T00:21:49;52.47;;;39.17;;
15553;SDS011;7878;44.632;10.942;2022-11-13T00:24:14;46.63;;;36.17;;
15553;SDS011;7878;44.632;10.942;2022-11-13T00:26:40;50.73;;;37.87;;
15553;SDS011;7878;44.632;10.942;2022-11-13T00:29:07;47.07;;;36.73;;
15553;SDS011;7878;44.632;10.942;2022-11-13T00:31:33;51.97;;;37.50;;
15553;SDS011;7878;44.632;10.942;2022-11-13T00:33:59;48.23;;;36.53;;
15553;SDS011;7878;44.632;10.942;2022-11-13T00:36:25;54.53;;;37.17;;
15553;SDS011;7878;44.632;10.942;2022-11-13T00:38:52;46.83;;;36.13;;
15553;SDS011;7878;44.632;10.942;2022-11-13T00:41:18;49.53;;;36.93;;
15553;SDS011;7878;44.632;10.942;2022-11-13T00:43:44;48.40;;;36.30;;
15553;SDS011;7878;44.632;10.942;2022-11-13T00:46:09;46.83;;;35.17;;
15553;SDS011;7878;44.632;10.942;2022-11-13T00:48:35;45.97;;;35.93;;
15553;SDS011;7878;44.632;10.942;2022-11-13T00:51:01;46.03;;;35.63;;
15553;SDS011;7878;44.632;10.942;2022-11-13T00:53:28;45.90;;;34.17;;
15553;SDS011;7878;44.632;10.942;2022-11-13T00:55:54;42.23;;;33.20;;
15553;SDS011;7878;44.632;10.942;2022-11-13T00:58:20;39.73;;;31.47;;
15553;SDS011;7878;44.632;10.942;2022-11-13T01:00:46;38.33;;;30.97;;
15553;SDS011;7878;44.632;10.942;2022-11-13T01:03:12;38.13;;;31.23;;
15553;SDS011;7878;44.632;10.942;2022-11-13T01:05:40;37.83;;;30.53;;
15553;SDS011;7878;44.632;10.942;2022-11-13T01:08:08;38.27;;;29.93;;
15553;SDS011;7878;44.632;10.942;2022-11-13T01:10:37;41.73;;;29.70;;
15553;SDS011;7878;44.632;10.942;2022-11-13T01:13:05;35.00;;;25.97;;
15553;SDS011;7878;44.632;10.942;2022-11-13T01:15:30;31.80;;;25.73;;
15553;SDS011;7878;44.632;10.942;2022-11-13T01:17:56;38.23;;;26.77;;
15553;SDS011;7878;44.632;10.942;2022-11-13T01:20:22;32.87;;;26.60;;
15553;SDS011;7878;44.632;10.942;2022-11-13T01:22:48;32.53;;;25.80;;
15553;SDS011;7878;44.632;10.942;2022-11-13T01:25:14;32.70;;;26.30;;
15553;SDS011;7878;44.632;10.942;2022-11-13T01:27:41;31.50;;;25.10;;
15553;SDS011;7878;44.632;10.942;2022-11-13T01:30:06;32.50;;;26.30;;
15553;SDS011;7878;44.632;10.942;2022-11-13T01:32:33;32.67;;;25.43;;
15553;SDS011;7878;44.632;10.942;2022-11-13T01:34:59;36.67;;;24.93;;
15553;SDS011;7878;44.632;10.942;2022-11-13T01:37:24;31.97;;;24.40;;
15553;SDS011;7878;44.632;10.942;2022-11-13T01:39:50;31.07;;;25.53;;
15553;SDS011;7878;44.632;10.942;2022-11-13T01:42:16;27.90;;;24.20;;
15553;SDS011;7878;44.632;10.942;2022-11-13T01:47:17;34.67;;;24.97;;
15553;SDS011;7878;44.632;10.942;2022-11-13T01:49:45;30.97;;;24.80;;
15553;SDS011;7878;44.632;10.942;2022-11-13T01:54:41;31.03;;;24.77;;
15553;SDS011;7878;44.632;10.942;2022-11-13T01:57:10;34.30;;;26.30;;
15553;SDS011;7878;44.632;10.942;2022-11-13T01:59:38;33.97;;;27.33;;
15553;SDS011;7878;44.632;10.942;2022-11-13T02:02:06;38.10;;;29.10;;
15553;SDS011;7878;44.632;10.942;2022-11-13T02:04:32;34.10;;;27.03;;
15553;SDS011;7878;44.632;10.942;2022-11-13T02:06:59;32.97;;;27.23;;
15553;SDS011;7878;44.632;10.942;2022-11-13T02:09:29;36.67;;;28.70;;
15553;SDS011;7878;44.632;10.942;2022-11-13T02:11:59;39.80;;;29.90;;
15553;SDS011;7878;44.632;10.942;2022-11-13T02:14:25;36.53;;;30.00;;
15553;SDS011;7878;44.632;10.942;2022-11-13T02:16:54;36.87;;;29.90;;
15553;SDS011;7878;44.632;10.942;2022-11-13T02:19:33;42.83;;;33.07;;
15553;SDS011;7878;44.632;10.942;2022-11-13T02:22:16;42.93;;;33.20;;
15553;SDS011;7878;44.632;10.942;2022-11-13T02:24:52;52.30;;;35.83;;
15553;SDS011;7878;44.632;10.942;2022-11-13T02:27:23;59.00;;;35.57;;
15553;SDS011;7878;44.632;10.942;2022-11-13T02:29:50;71.07;;;39.53;;
15553;SDS011;7878;44.632;10.942;2022-11-13T02:32:16;52.83;;;38.03;;
15553;SDS011;7878;44.632;10.942;2022-11-13T02:34:41;52.27;;;35.50;;
15553;SDS011;7878;44.632;10.942;2022-11-13T02:37:07;48.13;;;33.90;;
15553;SDS011;7878;44.632;10.942;2022-11-13T02:39:33;48.80;;;34.57;;
15553;SDS011;7878;44.632;10.942;2022-11-13T02:41:58;55.57;;;35.77;;
15553;SDS011;7878;44.632;10.942;2022-11-13T02:44:24;53.50;;;33.93;;
15553;SDS011;7878;44.632;10.942;2022-11-13T02:46:49;50.50;;;34.77;;
15553;SDS011;7878;44.632;10.942;2022-11-13T02:49:15;46.27;;;34.43;;
15553;SDS011;7878;44.632;10.942;2022-11-13T02:51:41;51.83;;;35.77;;
15553;SDS011;7878;44.632;10.942;2022-11-13T02:54:06;46.40;;;34.83;;
15553;SDS011;7878;44.632;10.942;2022-11-13T02:56:32;52.50;;;36.73;;
15553;SDS011;7878;44.632;10.942;2022-11-13T02:58:58;45.23;;;36.40;;
15553;SDS011;7878;44.632;10.942;2022-11-13T03:01:23;42.83;;;35.03;;
15553;SDS011;7878;44.632;10.942;2022-11-13T03:03:49;44.70;;;34.17;;
15553;SDS011;7878;44.632;10.942;2022-11-13T03:06:15;39.60;;;33.80;;
15553;SDS011;7878;44.632;10.942;2022-11-13T03:08:40;43.17;;;33.87;;
15553;SDS011;7878;44.632;10.942;2022-11-13T03:11:07;43.73;;;34.27;;
15553;SDS011;7878;44.632;10.942;2022-11-13T03:13:34;47.97;;;34.03;;
15553;SDS011;7878;44.632;10.942;2022-11-13T03:16:10;40.60;;;32.80;;
15553;SDS011;7878;44.632;10.942;2022-11-13T03:18:40;36.87;;;32.03;;
15553;SDS011;7878;44.632;10.942;2022-11-13T03:21:09;38.37;;;32.97;;
15553;SDS011;7878;44.632;10.942;2022-11-13T03:23:38;36.70;;;31.47;;
15553;SDS011;7878;44.632;10.942;2022-11-13T03:26:06;40.67;;;31.73;;
15553;SDS011;7878;44.632;10.942;2022-11-13T03:28:34;38.00;;;31.30;;
15553;SDS011;7878;44.632;10.942;2022-11-13T03:31:00;42.47;;;30.83;;
15553;SDS011;7878;44.632;10.942;2022-11-13T03:33:26;38.20;;;32.40;;
15553;SDS011;7878;44.632;10.942;2022-11-13T03:35:53;35.43;;;31.57;;
15553;SDS011;7878;44.632;10.942;2022-11-13T03:38:19;34.80;;;30.73;;
15553;SDS011;7878;44.632;10.942;2022-11-13T03:40:45;35.80;;;31.47;;
15553;SDS011;7878;44.632;10.942;2022-11-13T03:43:11;34.90;;;31.20;;
15553;SDS011;7878;44.632;10.942;2022-11-13T03:45:37;43.07;;;31.43;;
15553;SDS011;7878;44.632;10.942;2022-11-13T03:48:02;49.73;;;32.07;;
15553;SDS011;7878;44.632;10.942;2022-11-13T03:50:28;37.63;;;30.60;;
15553;SDS011;7878;44.632;10.942;2022-11-13T03:52:54;34.37;;;28.17;;
15553;SDS011;7878;44.632;10.942;2022-11-13T03:55:20;36.13;;;29.33;;
15553;SDS011;7878;44.632;10.942;2022-11-13T03:57:46;37.90;;;32.70;;
15553;SDS011;7878;44.632;10.942;2022-11-13T04:00:12;40.53;;;32.97;;
15553;SDS011;7878;44.632;10.942;2022-11-13T04:02:38;60.37;;;39.60;;
15553;SDS011;7878;44.632;10.942;2022-11-13T04:05:04;69.07;;;42.83;;
15553;SDS011;7878;44.632;10.942;2022-11-13T04:07:31;78.17;;;45.47;;
15553;SDS011;7878;44.632;10.942;2022-11-13T04:09:57;104.80;;;48.53;;
15553;SDS011;7878;44.632;10.942;2022-11-13T04:12:22;96.30;;;46.07;;
15553;SDS011;7878;44.632;10.942;2022-11-13T04:14:48;111.40;;;47.83;;
15553;SDS011;7878;44.632;10.942;2022-11-13T04:17:14;139.60;;;49.53;;
15553;SDS011;7878;44.632;10.942;2022-11-13T04:19:40;110.00;;;51.93;;
15553;SDS011;7878;44.632;10.942;2022-11-13T04:22:05;106.33;;;50.83;;
15553;SDS011;7878;44.632;10.942;2022-11-13T04:24:31;110.07;;;51.97;;
15553;SDS011;7878;44.632;10.942;2022-11-13T04:26:57;101.07;;;50.47;;
15553;SDS011;7878;44.632;10.942;2022-11-13T04:29:22;98.97;;;49.83;;
15553;SDS011;7878;44.632;10.942;2022-11-13T04:31:48;96.47;;;48.37;;
15553;SDS011;7878;44.632;10.942;2022-11-13T04:34:13;90.93;;;47.63;;
15553;SDS011;7878;44.632;10.942;2022-11-13T04:36:39;95.23;;;47.33;;
15553;SDS011;7878;44.632;10.942;2022-11-13T04:39:05;86.83;;;45.43;;
15553;SDS011;7878;44.632;10.942;2022-11-13T04:41:30;95.57;;;46.03;;
15553;SDS011;7878;44.632;10.942;2022-11-13T04:44:14;89.00;;;46.20;;
15553;SDS011;7878;44.632;10.942;2022-11-13T04:46:40;86.80;;;45.50;;
15553;SDS011;7878;44.632;10.942;2022-11-13T04:49:06;81.47;;;45.63;;
15553;SDS011;7878;44.632;10.942;2022-11-13T04:51:31;83.87;;;43.73;;
15553;SDS011;7878;44.632;10.942;2022-11-13T04:53:57;78.37;;;42.40;;
15553;SDS011;7878;44.632;10.942;2022-11-13T04:56:22;69.93;;;40.40;;
15553;SDS011;7878;44.632;10.942;2022-11-13T04:58:49;71.07;;;38.73;;
15553;SDS011;7878;44.632;10.942;2022-11-13T05:01:14;68.67;;;39.60;;
15553;SDS011;7878;44.632;10.942;2022-11-13T05:03:40;66.30;;;37.97;;
15553;SDS011;7878;44.632;10.942;2022-11-13T05:06:06;69.77;;;39.27;;
15553;SDS011;7878;44.632;10.942;2022-11-13T05:08:33;65.03;;;37.80;;
15553;SDS011;7878;44.632;10.942;2022-11-13T05:10:59;59.30;;;35.97;;
15553;SDS011;7878;44.632;10.942;2022-11-13T05:13:26;58.17;;;36.43;;
15553;SDS011;7878;44.632;10.942;2022-11-13T05:16:02;56.60;;;34.13;;
15553;SDS011;7878;44.632;10.942;2022-11-13T05:18:33;54.47;;;33.33;;
15553;SDS011;7878;44.632;10.942;2022-11-13T05:21:00;49.63;;;32.53;;
15553;SDS011;7878;44.632;10.942;2022-11-13T05:23:26;46.03;;;30.37;;
15553;SDS011;7878;44.632;10.942;2022-11-13T05:25:52;46.83;;;31.30;;
15553;SDS011;7878;44.632;10.942;2022-11-13T05:28:24;50.33;;;33.27;;
15553;SDS011;7878;44.632;10.942;2022-11-13T05:30:50;54.70;;;31.20;;
15553;SDS011;7878;44.632;10.942;2022-11-13T05:33:16;49.07;;;32.13;;
15553;SDS011;7878;44.632;10.942;2022-11-13T05:35:41;46.27;;;30.60;;
15553;SDS011;7878;44.632;10.942;2022-11-13T05:38:07;48.73;;;31.53;;
15553;SDS011;7878;44.632;10.942;2022-11-13T05:40:33;43.17;;;31.47;;
15553;SDS011;7878;44.632;10.942;2022-11-13T05:42:58;45.37;;;30.53;;
15553;SDS011;7878;44.632;10.942;2022-11-13T05:45:24;47.20;;;32.23;;
15553;SDS011;7878;44.632;10.942;2022-11-13T05:47:49;49.37;;;31.90;;
15553;SDS011;7878;44.632;10.942;2022-11-13T05:50:15;46.50;;;31.17;;
15553;SDS011;7878;44.632;10.942;2022-11-13T05:52:41;45.47;;;30.27;;
15553;SDS011;7878;44.632;10.942;2022-11-13T05:55:06;44.03;;;30.10;;
15553;SDS011;7878;44.632;10.942;2022-11-13T05:57:32;50.57;;;32.00;;
15553;SDS011;7878;44.632;10.942;2022-11-13T05:59:58;48.43;;;33.53;;
15553;SDS011;7878;44.632;10.942;2022-11-13T06:02:24;46.17;;;32.13;;
15553;SDS011;7878;44.632;10.942;2022-11-13T06:04:49;44.80;;;31.93;;
15553;SDS011;7878;44.632;10.942;2022-11-13T06:07:15;46.93;;;31.53;;
15553;SDS011;7878;44.632;10.942;2022-11-13T06:09:40;45.07;;;29.43;;
15553;SDS011;7878;44.632;10.942;2022-11-13T06:12:06;42.10;;;29.97;;
15553;SDS011;7878;44.632;10.942;2022-11-13T06:14:32;41.33;;;29.77;;
15553;SDS011;7878;44.632;10.942;2022-11-13T06:16:57;44.90;;;31.23;;
15553;SDS011;7878;44.632;10.942;2022-11-13T06:19:23;41.83;;;30.73;;
15553;SDS011;7878;44.632;10.942;2022-11-13T06:21:49;43.20;;;30.87;;
15553;SDS011;7878;44.632;10.942;2022-11-13T06:24:14;42.77;;;31.00;;
15553;SDS011;7878;44.632;10.942;2022-11-13T06:26:40;39.60;;;30.60;;
15553;SDS011;7878;44.632;10.942;2022-11-13T06:29:06;41.67;;;31.43;;
15553;SDS011;7878;44.632;10.942;2022-11-13T06:31:35;41.97;;;30.30;;
15553;SDS011;7878;44.632;10.942;2022-11-13T06:34:01;45.27;;;31.20;;
15553;SDS011;7878;44.632;10.942;2022-11-13T06:36:29;41.27;;;31.03;;
15553;SDS011;7878;44.632;10.942;2022-11-13T06:38:56;39.90;;;29.70;;
15553;SDS011;7878;44.632;10.942;2022-11-13T06:41:23;32.53;;;28.43;;
15553;SDS011;7878;44.632;10.942;2022-11-13T06:43:51;37.73;;;29.20;;
15553;SDS011;7878;44.632;10.942;2022-11-13T06:46:18;34.67;;;28.50;;
15553;SDS011;7878;44.632;10.942;2022-11-13T06:48:45;35.23;;;25.93;;
15553;SDS011;7878;44.632;10.942;2022-11-13T06:51:15;36.13;;;26.03;;
15553;SDS011;7878;44.632;10.942;2022-11-13T06:53:51;32.00;;;26.40;;
15553;SDS011;7878;44.632;10.942;2022-11-13T06:56:17;36.47;;;27.77;;
15553;SDS011;7878;44.632;10.942;2022-11-13T06:58:43;34.00;;;27.90;;
15553;SDS011;7878;44.632;10.942;2022-11-13T07:01:13;39.13;;;28.57;;
15553;SDS011;7878;44.632;10.942;2022-11-13T07:03:41;37.67;;;29.17;;
15553;SDS011;7878;44.632;10.942;2022-11-13T07:06:09;36.40;;;26.93;;
15553;SDS011;7878;44.632;10.942;2022-11-13T07:08:38;38.80;;;27.97;;
15553;SDS011;7878;44.632;10.942;2022-11-13T07:11:05;39.77;;;27.67;;
15553;SDS011;7878;44.632;10.942;2022-11-13T07:13:33;37.37;;;28.00;;
15553;SDS011;7878;44.632;10.942;2022-11-13T07:16:02;32.13;;;26.03;;
15553;SDS011;7878;44.632;10.942;2022-11-13T07:18:29;34.10;;;26.50;;
15553;SDS011;7878;44.632;10.942;2022-11-13T07:20:55;37.07;;;26.47;;
15553;SDS011;7878;44.632;10.942;2022-11-13T07:23:21;38.57;;;26.53;;
15553;SDS011;7878;44.632;10.942;2022-11-13T07:25:47;34.70;;;26.77;;
15553;SDS011;7878;44.632;10.942;2022-11-13T07:28:13;34.87;;;26.53;;
15553;SDS011;7878;44.632;10.942;2022-11-13T07:30:39;36.67;;;26.93;;
15553;SDS011;7878;44.632;10.942;2022-11-13T07:33:04;33.33;;;25.60;;
15553;SDS011;7878;44.632;10.942;2022-11-13T07:35:30;32.83;;;24.63;;
15553;SDS011;7878;44.632;10.942;2022-11-13T07:37:56;33.43;;;23.57;;
15553;SDS011;7878;44.632;10.942;2022-11-13T07:40:22;32.40;;;24.97;;
15553;SDS011;7878;44.632;10.942;2022-11-13T07:42:55;34.47;;;24.03;;
15553;SDS011;7878;44.632;10.942;2022-11-13T07:45:22;34.63;;;24.83;;
15553;SDS011;7878;44.632;10.942;2022-11-13T07:47:47;35.33;;;25.37;;
15553;SDS011;7878;44.632;10.942;2022-11-13T07:50:13;31.53;;;23.23;;
15553;SDS011;7878;44.632;10.942;2022-11-13T07:52:38;33.37;;;25.10;;
15553;SDS011;7878;44.632;10.942;2022-11-13T07:55:04;39.13;;;24.13;;
15553;SDS011;7878;44.632;10.942;2022-11-13T07:57:30;32.77;;;23.93;;
15553;SDS011;7878;44.632;10.942;2022-11-13T07:59:56;33.33;;;24.67;;
15553;SDS011;7878;44.632;10.942;2022-11-13T08:02:21;38.20;;;23.80;;
15553;SDS011;7878;44.632;10.942;2022-11-13T08:04:47;33.93;;;23.93;;
15553;SDS011;7878;44.632;10.942;2022-11-13T08:07:13;33.80;;;22.93;;
15553;SDS011;7878;44.632;10.942;2022-11-13T08:09:38;36.07;;;22.43;;
15553;SDS011;7878;44.632;10.942;2022-11-13T08:12:04;29.57;;;20.70;;
15553;SDS011;7878;44.632;10.942;2022-11-13T08:14:30;31.00;;;22.37;;
15553;SDS011;7878;44.632;10.942;2022-11-13T08:16:55;33.97;;;20.73;;
15553;SDS011;7878;44.632;10.942;2022-11-13T08:19:21;28.03;;;19.33;;
15553;SDS011;7878;44.632;10.942;2022-11-13T08:21:46;29.13;;;19.73;;
15553;SDS011;7878;44.632;10.942;2022-11-13T08:24:12;27.57;;;18.30;;
15553;SDS011;7878;44.632;10.942;2022-11-13T08:26:38;27.60;;;20.53;;
15553;SDS011;7878;44.632;10.942;2022-11-13T08:29:03;32.50;;;25.57;;
15553;SDS011;7878;44.632;10.942;2022-11-13T08:31:29;23.17;;;17.03;;
15553;SDS011;7878;44.632;10.942;2022-11-13T08:33:55;22.57;;;16.37;;
15553;SDS011;7878;44.632;10.942;2022-11-13T08:36:21;24.70;;;17.27;;
15553;SDS011;7878;44.632;10.942;2022-11-13T08:38:47;20.03;;;13.57;;
15553;SDS011;7878;44.632;10.942;2022-11-13T08:41:12;21.50;;;17.10;;
15553;SDS011;7878;44.632;10.942;2022-11-13T08:43:38;19.00;;;15.27;;
15553;SDS011;7878;44.632;10.942;2022-11-13T08:46:04;25.10;;;17.00;;
15553;SDS011;7878;44.632;10.942;2022-11-13T08:48:30;23.17;;;14.13;;
15553;SDS011;7878;44.632;10.942;2022-11-13T08:50:55;18.90;;;13.00;;
15553;SDS011;7878;44.632;10.942;2022-11-13T08:53:22;18.87;;;14.60;;
15553;SDS011;7878;44.632;10.942;2022-11-13T08:55:48;26.43;;;17.03;;
15553;SDS011;7878;44.632;10.942;2022-11-13T08:58:14;20.97;;;15.03;;
15553;SDS011;7878;44.632;10.942;2022-11-13T09:00:40;19.00;;;13.33;;
15553;SDS011;7878;44.632;10.942;2022-11-13T09:03:05;16.03;;;11.60;;
15553;SDS011;7878;44.632;10.942;2022-11-13T09:05:34;16.30;;;10.63;;
15553;SDS011;7878;44.632;10.942;2022-11-13T09:08:01;14.57;;;10.97;;
15553;SDS011;7878;44.632;10.942;2022-11-13T09:10:27;15.10;;;10.97;;
15553;SDS011;7878;44.632;10.942;2022-11-13T09:12:59;12.63;;;9.37;;
15553;SDS011;7878;44.632;10.942;2022-11-13T09:15:27;12.03;;;9.90;;
15553;SDS011;7878;44.632;10.942;2022-11-13T09:18:00;23.70;;;17.33;;
15553;SDS011;7878;44.632;10.942;2022-11-13T09:20:30;18.07;;;10.27;;
15553;SDS011;7878;44.632;10.942;2022-11-13T09:22:58;12.67;;;8.23;;
15553;SDS011;7878;44.632;10.942;2022-11-13T09:25:24;16.80;;;11.20;;
15553;SDS011;7878;44.632;10.942;2022-11-13T09:27:52;12.57;;;8.53;;
15553;SDS011;7878;44.632;10.942;2022-11-13T09:30:28;8.97;;;7.93;;
15553;SDS011;7878;44.632;10.942;2022-11-13T09:32:55;11.07;;;8.13;;
15553;SDS011;7878;44.632;10.942;2022-11-13T09:35:24;14.80;;;9.57;;
15553;SDS011;7878;44.632;10.942;2022-11-13T09:40:30;9.83;;;8.33;;
15553;SDS011;7878;44.632;10.942;2022-11-13T09:42:59;15.57;;;9.77;;
15553;SDS011;7878;44.632;10.942;2022-11-13T09:45:28;13.50;;;9.13;;
15553;SDS011;7878;44.632;10.942;2022-11-13T09:47:57;12.30;;;9.10;;
15553;SDS011;7878;44.632;10.942;2022-11-13T09:50:39;11.70;;;9.63;;
15553;SDS011;7878;44.632;10.942;2022-11-13T09:53:05;20.10;;;10.90;;
15553;SDS011;7878;44.632;10.942;2022-11-13T09:55:31;19.30;;;11.80;;
15553;SDS011;7878;44.632;10.942;2022-11-13T09:58:53;12.90;;;10.30;;
15553;SDS011;7878;44.632;10.942;2022-11-13T10:00:57;13.93;;;10.00;;
15553;SDS011;7878;44.632;10.942;2022-11-13T10:11:51;15.50;;;10.93;;
15553;SDS011;7878;44.632;10.942;2022-11-13T10:14:56;15.37;;;10.17;;
15553;SDS011;7878;44.632;10.942;2022-11-13T10:17:21;15.57;;;10.47;;
15553;SDS011;7878;44.632;10.942;2022-11-13T10:25:04;16.90;;;10.90;;
15553;SDS011;7878;44.632;10.942;2022-11-13T10:27:39;17.03;;;11.17;;
15553;SDS011;7878;44.632;10.942;2022-11-13T10:30:12;16.30;;;11.33;;
15553;SDS011;7878;44.632;10.942;2022-11-13T10:32:39;13.93;;;10.30;;
15553;SDS011;7878;44.632;10.942;2022-11-13T10:40:30;31.07;;;19.17;;
15553;SDS011;7878;44.632;10.942;2022-11-13T10:45:30;17.83;;;10.73;;
15553;SDS011;7878;44.632;10.942;2022-11-13T10:47:55;26.90;;;16.80;;
15553;SDS011;7878;44.632;10.942;2022-11-13T10:50:28;14.80;;;10.80;;
15553;SDS011;7878;44.632;10.942;2022-11-13T10:52:54;15.63;;;9.93;;
15553;SDS011;7878;44.632;10.942;2022-11-13T10:58:23;11.80;;;8.93;;
15553;SDS011;7878;44.632;10.942;2022-11-13T11:00:48;10.90;;;9.03;;
15553;SDS011;7878;44.632;10.942;2022-11-13T11:05:52;15.30;;;9.90;;
15553;SDS011;7878;44.632;10.942;2022-11-13T11:08:31;14.03;;;10.00;;
15553;SDS011;7878;44.632;10.942;2022-11-13T11:11:01;10.73;;;9.10;;
15553;SDS011;7878;44.632;10.942;2022-11-13T11:13:50;15.37;;;11.53;;
15553;SDS011;7878;44.632;10.942;2022-11-13T11:16:20;19.40;;;11.63;;
15553;SDS011;7878;44.632;10.942;2022-11-13T11:18:52;14.83;;;11.87;;
15553;SDS011;7878;44.632;10.942;2022-11-13T11:21:25;16.23;;;12.27;;
15553;SDS011;7878;44.632;10.942;2022-11-13T11:26:33;14.33;;;9.83;;
15553;SDS011;7878;44.632;10.942;2022-11-13T11:31:55;13.50;;;8.80;;
15553;SDS011;7878;44.632;10.942;2022-11-13T11:42:23;15.40;;;9.93;;
15553;SDS011;7878;44.632;10.942;2022-11-13T11:45:04;13.57;;;8.47;;
15553;SDS011;7878;44.632;10.942;2022-11-13T11:47:38;12.20;;;8.93;;
15553;SDS011;7878;44.632;10.942;2022-11-13T11:50:04;10.40;;;8.80;;
15553;SDS011;7878;44.632;10.942;2022-11-13T12:01:06;12.57;;;9.23;;
15553;SDS011;7878;44.632;10.942;2022-11-13T12:17:38;11.80;;;9.17;;
15553;SDS011;7878;44.632;10.942;2022-11-13T12:20:23;12.63;;;9.87;;
15553;SDS011;7878;44.632;10.942;2022-11-13T12:25:45;14.23;;;9.67;;
15553;SDS011;7878;44.632;10.942;2022-11-13T12:36:13;15.97;;;9.97;;
15553;SDS011;7878;44.632;10.942;2022-11-13T12:41:53;13.63;;;11.37;;
15553;SDS011;7878;44.632;10.942;2022-11-13T12:44:26;14.47;;;11.00;;
15553;SDS011;7878;44.632;10.942;2022-11-13T12:46:53;14.50;;;10.07;;
15553;SDS011;7878;44.632;10.942;2022-11-13T12:51:55;15.50;;;10.07;;
15553;SDS011;7878;44.632;10.942;2022-11-13T12:54:29;13.97;;;10.70;;
15553;SDS011;7878;44.632;10.942;2022-11-13T12:57:05;12.93;;;10.27;;
15553;SDS011;7878;44.632;10.942;2022-11-13T12:59:38;12.60;;;10.40;;
15553;SDS011;7878;44.632;10.942;2022-11-13T13:10:11;13.23;;;10.17;;
15553;SDS011;7878;44.632;10.942;2022-11-13T13:15:42;12.93;;;11.10;;
15553;SDS011;7878;44.632;10.942;2022-11-13T13:23:38;20.10;;;11.63;;
15553;SDS011;7878;44.632;10.942;2022-11-13T13:28:42;17.50;;;11.57;;
15553;SDS011;7878;44.632;10.942;2022-11-13T13:37:09;14.43;;;10.97;;
15553;SDS011;7878;44.632;10.942;2022-11-13T13:48:12;12.97;;;11.03;;
15553;SDS011;7878;44.632;10.942;2022-11-13T13:50:42;12.80;;;10.67;;
15553;SDS011;7878;44.632;10.942;2022-11-13T13:53:11;15.33;;;11.33;;
15553;SDS011;7878;44.632;10.942;2022-11-13T13:55:43;14.20;;;11.40;;
15553;SDS011;7878;44.632;10.942;2022-11-13T13:58:13;16.17;;;11.63;;
15553;SDS011;7878;44.632;10.942;2022-11-13T14:00:41;13.90;;;11.53;;
15553;SDS011;7878;44.632;10.942;2022-11-13T14:03:19;15.10;;;12.47;;
15553;SDS011;7878;44.632;10.942;2022-11-13T14:05:46;15.93;;;13.03;;
15553;SDS011;7878;44.632;10.942;2022-11-13T14:08:19;20.97;;;13.20;;
15553;SDS011;7878;44.632;10.942;2022-11-13T14:10:48;14.45;;;11.75;;
15553;SDS011;7878;44.632;10.942;2022-11-13T14:13:21;16.95;;;12.20;;
15553;SDS011;7878;44.632;10.942;2022-11-13T14:16:01;15.98;;;12.82;;
15553;SDS011;7878;44.632;10.942;2022-11-13T14:18:31;17.35;;;11.65;;
15553;SDS011;7878;44.632;10.942;2022-11-13T14:20:59;15.93;;;12.80;;
15553;SDS011;7878;44.632;10.942;2022-11-13T14:23:38;16.30;;;11.53;;
15553;SDS011;7878;44.632;10.942;2022-11-13T14:26:07;22.67;;;12.37;;
15553;SDS011;7878;44.632;10.942;2022-11-13T14:28:57;13.93;;;11.13;;
15553;SDS011;7878;44.632;10.942;2022-11-13T14:31:29;19.43;;;12.30;;
15553;SDS011;7878;44.632;10.942;2022-11-13T14:34:06;16.37;;;12.17;;
15553;SDS011;7878;44.632;10.942;2022-11-13T14:36:34;14.33;;;11.37;;
15553;SDS011;7878;44.632;10.942;2022-11-13T14:39:01;15.40;;;12.00;;
15553;SDS011;7878;44.632;10.942;2022-11-13T14:44:10;16.57;;;12.03;;
15553;SDS011;7878;44.632;10.942;2022-11-13T14:46:37;16.33;;;12.32;;
15553;SDS011;7878;44.632;10.942;2022-11-13T14:49:24;18.80;;;12.00;;
15553;SDS011;7878;44.632;10.942;2022-11-13T14:51:55;14.37;;;11.80;;
15553;SDS011;7878;44.632;10.942;2022-11-13T14:57:10;17.60;;;12.23;;
15553;SDS011;7878;44.632;10.942;2022-11-13T14:59:37;17.00;;;11.83;;
15553;SDS011;7878;44.632;10.942;2022-11-13T15:02:08;18.67;;;13.97;;
15553;SDS011;7878;44.632;10.942;2022-11-13T15:04:35;17.77;;;13.50;;
15553;SDS011;7878;44.632;10.942;2022-11-13T15:07:01;19.23;;;15.73;;
15553;SDS011;7878;44.632;10.942;2022-11-13T15:09:28;35.57;;;21.80;;
15553;SDS011;7878;44.632;10.942;2022-11-13T15:11:55;87.60;;;55.53;;
15553;SDS011;7878;44.632;10.942;2022-11-13T15:14:20;22.13;;;15.77;;
15553;SDS011;7878;44.632;10.942;2022-11-13T15:16:47;22.40;;;17.37;;
15553;SDS011;7878;44.632;10.942;2022-11-13T15:19:16;24.97;;;16.40;;
15553;SDS011;7878;44.632;10.942;2022-11-13T15:21:48;20.95;;;16.95;;
15553;SDS011;7878;44.632;10.942;2022-11-13T15:24:14;23.57;;;16.40;;
15553;SDS011;7878;44.632;10.942;2022-11-13T15:26:39;20.83;;;16.60;;
15553;SDS011;7878;44.632;10.942;2022-11-13T15:29:05;20.77;;;16.23;;
15553;SDS011;7878;44.632;10.942;2022-11-13T15:31:39;20.70;;;16.33;;
15553;SDS011;7878;44.632;10.942;2022-11-13T15:34:13;20.13;;;15.07;;
15553;SDS011;7878;44.632;10.942;2022-11-13T15:36:40;20.03;;;15.97;;
15553;SDS011;7878;44.632;10.942;2022-11-13T15:39:06;21.87;;;15.47;;
15553;SDS011;7878;44.632;10.942;2022-11-13T15:41:32;19.10;;;15.50;;
15553;SDS011;7878;44.632;10.942;2022-11-13T15:44:00;52.73;;;38.07;;
15553;SDS011;7878;44.632;10.942;2022-11-13T15:46:30;26.43;;;17.50;;
15553;SDS011;7878;44.632;10.942;2022-11-13T15:48:56;19.37;;;15.17;;
15553;SDS011;7878;44.632;10.942;2022-11-13T15:56:44;24.37;;;18.70;;
15553;SDS011;7878;44.632;10.942;2022-11-13T15:59:11;21.40;;;17.47;;
15553;SDS011;7878;44.632;10.942;2022-11-13T16:01:38;28.77;;;19.17;;
15553;SDS011;7878;44.632;10.942;2022-11-13T16:04:05;22.43;;;18.30;;
15553;SDS011;7878;44.632;10.942;2022-11-13T16:06:31;27.87;;;20.10;;
15553;SDS011;7878;44.632;10.942;2022-11-13T16:08:58;34.57;;;26.90;;
15553;SDS011;7878;44.632;10.942;2022-11-13T16:11:24;31.67;;;23.43;;
15553;SDS011;7878;44.632;10.942;2022-11-13T16:13:50;33.90;;;26.60;;
15553;SDS011;7878;44.632;10.942;2022-11-13T16:16:17;32.97;;;25.90;;
15553;SDS011;7878;44.632;10.942;2022-11-13T16:18:48;37.13;;;29.57;;
15553;SDS011;7878;44.632;10.942;2022-11-13T16:21:15;47.67;;;32.53;;
15553;SDS011;7878;44.632;10.942;2022-11-13T16:23:42;40.80;;;30.47;;
15553;SDS011;7878;44.632;10.942;2022-11-13T16:26:11;46.43;;;31.70;;
15553;SDS011;7878;44.632;10.942;2022-11-13T16:28:49;48.00;;;34.03;;
15553;SDS011;7878;44.632;10.942;2022-11-13T16:31:19;42.67;;;31.67;;
15553;SDS011;7878;44.632;10.942;2022-11-13T16:33:45;43.73;;;33.47;;
15553;SDS011;7878;44.632;10.942;2022-11-13T16:36:15;46.47;;;34.70;;
15553;SDS011;7878;44.632;10.942;2022-11-13T16:38:42;48.57;;;35.47;;
15553;SDS011;7878;44.632;10.942;2022-11-13T16:41:11;48.37;;;34.10;;